Terminal Aerodrome Forecast
Issued by NWS Wichita, KS

Home | Current Version | Previous Version | Graphics & Text | Print | Product List | Glossary On
Versions: 1 2 3 4 5 6 7 8 9 10 11 12 13 14 15 16 17 18 19 20
671
FTUS43 KICT 131134
TAFICT
TAF
KICT 131134Z 1312/1412 09011KT P6SM SCT040 BKN200
     FM131800 15014G20KT P6SM SCT035 BKN150
     FM140000 13013KT P6SM SCT040
     FM140300 12013KT P6SM SCT015 OVC030
     FM140800 15013KT P6SM SCT007
     FM141000 15009KT 6SM BR SCT005=

USA.gov is the U.S. government's official web portal to all federal, state and local government web resources and services.